Time;durP1;ratioP1;P1;durP2;ratioP2;P2;SDS_P1;SDS_P2;PMS_P1;PMS_P2;Temp;Humidity;BMP_temperature;BMP_pressure;BME280_temperature;BME280_humidity;BME280_pressure;Samples;Min_cycle;Max_cycle;Signal;HPM_P1;HPM_P2
2021/09/28 13:44:23;;;;;;;4.65;2.35;;;9.80;70.40;;;;;;3816779;37;20075;-65
2021/09/28 13:46:49;;;;;;;6.80;3.08;;;9.50;72.20;;;;;;4358014;32;20066;-68
2021/09/28 13:49:15;;;;;;;3.50;2.15;;;9.50;72.20;;;;;;4363044;32;20089;-68
2021/09/28 13:51:42;;;;;;;3.47;1.73;;;9.50;71.40;;;;;;4365120;32;20092;-67
2021/09/28 13:54:08;;;;;;;6.85;2.22;;;9.50;70.80;;;;;;4356344;32;20066;-66
2021/09/28 13:56:34;;;;;;;6.15;2.12;;;9.50;69.60;;;;;;4390304;32;20153;-68
2021/09/28 13:59:00;;;;;;;6.32;2.87;;;9.50;71.10;;;;;;4391017;32;20507;-71
2021/09/28 14:01:27;;;;;;;7.22;2.78;;;9.30;71.60;;;;;;4372359;32;20249;-69
2021/09/28 14:03:54;;;;;;;4.78;2.20;;;9.30;72.80;;;;;;4369196;32;20516;-68
2021/09/28 14:06:20;;;;;;;6.30;2.97;;;9.30;73.80;;;;;;4366947;32;20496;-65
2021/09/28 14:08:47;;;;;;;6.45;2.97;;;9.20;75.00;;;;;;4335513;32;20106;-71
2021/09/28 14:11:15;;;;;;;4.78;2.65;;;9.10;75.90;;;;;;4355661;32;20063;-69
2021/09/28 14:13:41;;;;;;;8.07;2.92;;;9.10;77.80;;;;;;4363204;32;20154;-70
2021/09/28 14:16:08;;;;;;;6.22;3.05;;;9.00;77.10;;;;;;4346047;32;20121;-67
2021/09/28 14:18:34;;;;;;;5.95;2.90;;;9.00;75.90;;;;;;4367229;32;20703;-68
2021/09/28 14:21:02;;;;;;;3.80;2.40;;;9.00;76.70;;;;;;4324869;32;20102;-69
2021/09/28 14:23:28;;;;;;;5.78;3.03;;;9.00;79.10;;;;;;4360013;32;20151;-69
2021/09/28 14:25:54;;;;;;;4.65;2.58;;;8.90;78.80;;;;;;4363775;32;20158;-71
2021/09/28 14:28:21;;;;;;;4.35;2.30;;;9.00;76.10;;;;;;4345012;32;20199;-68
2021/09/28 14:30:48;;;;;;;4.28;2.78;;;8.90;77.20;;;;;;4345428;32;20098;-68
2021/09/28 14:33:15;;;;;;;4.60;2.60;;;8.90;79.40;;;;;;4330312;32;20110;-66
2021/09/28 14:35:41;;;;;;;3.83;2.78;;;8.80;79.30;;;;;;4323572;32;20089;-65
2021/09/28 14:38:07;;;;;;;3.80;2.58;;;8.80;80.30;;;;;;4353377;32;20063;-65
2021/09/28 14:40:34;;;;;;;5.03;2.67;;;8.70;79.10;;;;;;4341327;32;20457;-66
2021/09/28 14:43:01;;;;;;;5.03;3.20;;;8.60;80.40;;;;;;4344109;32;20067;-68
2021/09/28 14:45:28;;;;;;;3.22;2.35;;;8.60;79.90;;;;;;4358422;32;20768;-66
2021/09/28 14:47:54;;;;;;;4.22;2.42;;;8.50;80.60;;;;;;4357404;32;20117;-70
2021/09/28 14:50:23;;;;;;;3.12;2.20;;;8.40;81.00;;;;;;4367787;32;20074;-68
2021/09/28 14:52:50;;;;;;;3.78;2.45;;;8.40;83.30;;;;;;4329491;32;20078;-65
2021/09/28 14:55:16;;;;;;;2.55;2.20;;;8.40;83.90;;;;;;4349353;32;20102;-74
2021/09/28 14:57:43;;;;;;;2.62;2.00;;;8.40;85.20;;;;;;4323818;32;20584;-67
2021/09/28 15:00:12;;;;;;;5.55;3.05;;;8.30;85.10;;;;;;4338836;32;20651;-68
2021/09/28 15:02:38;;;;;;;4.18;2.53;;;8.20;85.50;;;;;;4338702;32;20188;-69
2021/09/28 15:05:05;;;;;;;5.80;2.47;;;8.20;85.20;;;;;;4350811;32;20181;-72
2021/09/28 15:07:31;;;;;;;7.20;2.55;;;8.10;86.60;;;;;;4349414;32;20570;-70
2021/09/28 15:09:57;;;;;;;5.35;2.80;;;8.10;87.00;;;;;;4340689;32;20094;-70
2021/09/28 15:12:24;;;;;;;5.87;2.75;;;8.10;87.80;;;;;;4305236;32;20083;-70
2021/09/28 15:14:52;;;;;;;4.45;3.33;;;8.00;88.90;;;;;;4346500;32;20101;-70
2021/09/28 15:17:18;;;;;;;4.65;2.70;;;8.00;89.80;;;;;;4341522;32;20184;-69
2021/09/28 15:19:46;;;;;;;6.78;3.20;;;7.90;89.10;;;;;;4331081;32;20070;-70
2021/09/28 15:22:12;;;;;;;5.87;2.83;;;7.90;89.30;;;;;;4333432;32;20102;-70
2021/09/28 15:24:39;;;;;;;5.72;3.00;;;7.90;90.30;;;;;;4354783;32;20098;-71
2021/09/28 15:27:05;;;;;;;8.30;3.97;;;7.90;89.50;;;;;;4350123;32;20075;-71
2021/09/28 15:29:31;;;;;;;4.35;2.28;;;7.90;90.10;;;;;;4344914;32;20621;-71
2021/09/28 15:32:08;;;;;;;4.28;2.97;;;7.80;90.90;;;;;;4348530;32;20130;-71
2021/09/28 15:34:35;;;;;;;3.17;2.30;;;7.80;90.90;;;;;;4346856;32;20059;-71
2021/09/28 15:37:02;;;;;;;3.53;2.72;;;7.70;91.20;;;;;;4350436;32;20098;-71
2021/09/28 15:39:28;;;;;;;4.22;2.58;;;7.70;90.70;;;;;;4351149;32;20468;-72
2021/09/28 15:41:54;;;;;;;5.00;2.70;;;7.70;91.60;;;;;;4329926;32;20217;-71
2021/09/28 15:44:21;;;;;;;3.28;2.35;;;7.70;91.70;;;;;;4341869;32;20705;-70
2021/09/28 15:46:47;;;;;;;5.30;3.00;;;7.70;91.50;;;;;;4332842;32;20118;-70
2021/09/28 15:49:14;;;;;;;4.70;3.25;;;7.70;91.30;;;;;;4324417;32;20137;-71
2021/09/28 15:51:42;;;;;;;4.47;2.47;;;7.70;90.90;;;;;;4360233;32;20075;-69
2021/09/28 15:54:08;;;;;;;5.97;2.80;;;7.70;91.20;;;;;;4334406;32;20487;-70
2021/09/28 15:56:35;;;;;;;3.35;2.22;;;7.70;91.10;;;;;;4355777;32;20498;-70
2021/09/28 15:59:01;;;;;;;3.65;2.58;;;7.70;91.30;;;;;;4351028;32;20126;-71
2021/09/28 16:01:28;;;;;;;4.37;2.80;;;7.60;91.00;;;;;;4323502;32;20092;-69
2021/09/28 16:03:54;;;;;;;4.40;2.70;;;7.60;90.50;;;;;;4354347;32;20532;-69
2021/09/28 16:06:20;;;;;;;6.03;2.80;;;7.60;91.10;;;;;;4353405;32;20102;-68
2021/09/28 16:08:47;;;;;;;5.80;2.65;;;7.60;91.50;;;;;;4342255;32;20078;-71
2021/09/28 16:11:15;;;;;;;4.85;3.30;;;7.50;91.40;;;;;;4358755;32;20083;-69
2021/09/28 16:13:46;;;;;;;4.30;2.80;;;7.50;91.00;;;;;;4348671;32;20089;-69
2021/09/28 16:16:12;;;;;;;4.43;2.83;;;7.60;90.40;;;;;;4348474;32;20074;-69
2021/09/28 16:18:41;;;;;;;5.05;3.20;;;7.50;90.80;;;;;;4335891;32;20105;-70
2021/09/28 16:21:08;;;;;;;9.77;3.40;;;7.50;90.90;;;;;;4335755;32;20518;-69
2021/09/28 16:23:35;;;;;;;7.15;2.97;;;7.40;91.30;;;;;;4336434;32;20086;-69
2021/09/28 16:26:02;;;;;;;6.62;3.08;;;7.40;92.20;;;;;;4336270;32;20586;-68
2021/09/28 16:28:28;;;;;;;8.02;3.00;;;7.30;91.70;;;;;;4324303;32;20166;-68
2021/09/28 16:30:54;;;;;;;8.73;3.30;;;7.30;91.70;;;;;;4360773;32;20085;-69
2021/09/28 16:33:26;;;;;;;4.00;2.60;;;7.20;92.10;;;;;;4359691;32;20110;-66
2021/09/28 16:35:57;;;;;;;3.72;2.58;;;7.20;92.40;;;;;;4349547;32;20074;-68
2021/09/28 16:38:23;;;;;;;4.40;2.87;;;7.10;92.90;;;;;;4348672;32;20090;-67
